Ara Antwerpen — ZDPG8 — position and weather

sailwx.info

Track history (hours):
 
Tides and Currents Weather Stations Pressure Air Temp Water Temp Dewpoint Dewpoint Depression Visibility Wind Speed Wind Dir Waves Ship Positions

Ara Antwerpen

Last reported at 2018-Feb-19 21:12 UTC. Time now 2018-Feb-20 00:13 UTC.
Position N 40°13' E 002°43'.

Length 145 m; draft 7.1 m.

Type: Cargo ship. MMSI: 236670000.

Date/timePositionNaut miles runAvg speedWind from/ knotsBaromVisibWave heightAir tempDewpointWater temp
2018-Feb-19 21:12N 40°13' E 002°43'312.3
2018-Feb-19 20:58N 40°11' E 002°40'  
2018-Feb-17 12:54N 37°28' W 009°44'513.2
2018-Feb-17 12:30N 37°33' W 009°45'1513.0
2018-Feb-17 11:19N 37°48' W 009°49'513.1
2018-Feb-17 10:57N 37°52' W 009°51'1113.1
2018-Feb-17 10:09N 38°02' W 009°55'712.8
2018-Feb-17 09:34N 38°10' W 009°57'212.8
2018-Feb-17 09:23N 38°12' W 009°58'513.0
2018-Feb-17 09:00N 38°17' W 009°59'913.0
2018-Feb-17 08:19N 38°25' W 010°02'413.2
2018-Feb-17 08:00N 38°29' W 010°03'1013.6
2018-Feb-17 07:18N 38°39' W 010°06'413.4
2018-Feb-17 07:00N 38°43' W 010°07'813.1
2018-Feb-17 06:24N 38°51' W 010°07'513.3
2018-Feb-17 06:00N 38°56' W 010°07'713.1
2018-Feb-17 05:30N 39°02' W 010°07'812.9
2018-Feb-17 04:52N 39°11' W 010°07'  
2018-Feb-15 00:23N 48°51' W 005°47'410.1
2018-Feb-14 23:56N 48°54' W 005°42'2511.5
2018-Feb-14 21:46N 49°08' W 005°10'612.2
2018-Feb-14 21:15N 49°11' W 005°02'7610.6
2018-Feb-14 14:06N 49°51' W 003°22'110.8
2018-Feb-14 14:00N 49°51' W 003°21'610.9
2018-Feb-14 13:29N 49°54' W 003°13'510.9
2018-Feb-14 13:00N 49°57' W 003°06'510.8
2018-Feb-14 12:31N 49°59' W 002°58'611.1
2018-Feb-14 11:59N 50°01' W 002°50'610.9
2018-Feb-14 11:28N 50°02' W 002°41'510.5
2018-Feb-14 10:59N 50°03' W 002°34'28 9.7
2018-Feb-14 08:08N 50°11' W 001°52'1 8.8
2018-Feb-14 07:58N 50°11' W 001°50'4 8.6
2018-Feb-14 07:30N 50°12' W 001°44'4 8.8
2018-Feb-14 07:01N 50°13' W 001°37'4 9.0
2018-Feb-14 06:30N 50°15' W 001°31'5 9.3
2018-Feb-14 06:00N 50°16' W 001°24'1510.7
2018-Feb-14 04:35N 50°20' W 001°01'112.2
2018-Feb-14 04:30N 50°21' W 000°59'712.9
2018-Feb-14 03:57N 50°22' W 000°49'713.5
2018-Feb-14 03:26N 50°24' W 000°38'913.7
2018-Feb-14 02:47N 50°27' W 000°25'413.5
2018-Feb-14 02:30N 50°28' W 000°19'713.3
2018-Feb-14 02:00N 50°30' W 000°09'713.1
2018-Feb-14 01:30N 50°32' E 000°01'612.9
2018-Feb-14 01:00N 50°34' E 000°10'612.5
2018-Feb-14 00:30N 50°35' E 000°20'612.1
2018-Feb-14 00:00N 50°37' E 000°29'611.9
2018-Feb-13 23:30N 50°40' E 000°37'611.9
2018-Feb-13 23:00N 50°43' E 000°45'611.1
2018-Feb-13 22:30N 50°46' E 000°52'610.5
2018-Feb-13 21:58N 50°50' E 000°59'1610.2
2018-Feb-13 20:24N 51°00' E 001°18'410.6
2018-Feb-13 20:00N 51°03' E 001°24'611.6
2018-Feb-13 19:30N 51°06' E 001°31'612.8
2018-Feb-13 19:00N 51°10' E 001°39'612.8
2018-Feb-13 18:30N 51°15' E 001°46'612.4
2018-Feb-13 18:00N 51°21' E 001°50'611.7
2018-Feb-13 17:30N 51°26' E 001°55'611.1
2018-Feb-13 17:00N 51°30' E 002°00'510.8
2018-Feb-13 16:30N 51°34' E 002°06'510.7
2018-Feb-13 16:00N 51°38' E 002°12'510.4
2018-Feb-13 15:30N 51°42' E 002°18'610.0
2018-Feb-13 14:54N 51°47' E 002°24'20410.8
2018-Feb-12 19:56N 54°38' E 005°28'511.2
2018-Feb-12 19:30N 54°42' E 005°33'610.9
2018-Feb-12 19:00N 54°47' E 005°38'611.0
2018-Feb-12 18:29N 54°52' E 005°43'510.8
2018-Feb-12 17:59N 54°57' E 005°47'610.9
2018-Feb-12 17:27N 55°02' E 005°52'510.9
2018-Feb-12 17:00N 55°06' E 005°56'610.9
2018-Feb-12 16:30N 55°11' E 005°60'510.7
2018-Feb-12 16:00N 55°16' E 006°04'510.7
2018-Feb-12 15:30N 55°21' E 006°09'510.4
2018-Feb-12 14:59N 55°25' E 006°13'510.3
2018-Feb-12 14:29N 55°30' E 006°18'510.2
2018-Feb-12 13:59N 55°34' E 006°22'510.1
2018-Feb-12 13:27N 55°39' E 006°25'510.4
2018-Feb-12 12:58N 55°44' E 006°26'510.5
2018-Feb-12 12:30N 55°49' E 006°26'510.4
2018-Feb-12 12:00N 55°55' E 006°25'510.7
2018-Feb-12 11:29N 55°60' E 006°24'6 7.7
2018-Feb-12 10:46N 56°05' E 006°27'4 8.2
2018-Feb-12 10:15N 56°07' E 006°33'2 7.0
2018-Feb-12 10:00N 56°08' E 006°36'161 8.7
2018-Feb-11 15:33N 57°46' E 010°29'011.0
2018-Feb-11 15:30N 57°46' E 010°30'611.9
2018-Feb-11 15:00N 57°46' E 010°41'510.9
2018-Feb-11 14:30N 57°43' E 010°49'612.7
2018-Feb-11 14:00N 57°37' E 010°53'612.1
2018-Feb-11 13:30N 57°31' E 010°55'4 7.5
2018-Feb-11 13:00N 57°28' E 010°51'0 0.3
2018-Feb-11 12:30N 57°28' E 010°51'0 0.1
2018-Feb-11 11:57N 57°28' E 010°51'0 0.1
2018-Feb-11 11:30N 57°28' E 010°51'0 0.1
2018-Feb-11 11:00N 57°28' E 010°51'0 0.2
2018-Feb-11 10:30N 57°28' E 010°51'0 0.0
2018-Feb-11 10:00N 57°28' E 010°51'0 0.1
2018-Feb-11 09:30N 57°28' E 010°51'0 0.3
2018-Feb-11 09:00N 57°28' E 010°52'0 0.5
2018-Feb-11 08:27N 57°28' E 010°52'0 0.4
2018-Feb-11 07:57N 57°28' E 010°52'0 0.3
2018-Feb-11 07:30N 57°28' E 010°52'0 0.7
2018-Feb-11 07:00N 57°27' E 010°53'0 0.7
2018-Feb-11 06:31N 57°27' E 010°53'5 9.1
2018-Feb-11 06:00N 57°27' E 011°02'611.3
2018-Feb-11 05:30N 57°29' E 011°12'510.9
2018-Feb-11 05:00N 57°29' E 011°22'5 9.7
2018-Feb-11 04:30N 57°25' E 011°28'611.5
2018-Feb-11 04:00N 57°20' E 011°31'611.5
2018-Feb-11 03:30N 57°15' E 011°35'611.8
2018-Feb-11 03:00N 57°09' E 011°39'612.4
2018-Feb-11 02:30N 57°03' E 011°42'4611.9
2018-Feb-10 22:36N 56°18' E 012°05'211.1
2018-Feb-10 22:24N 56°17' E 012°08'511.7
2018-Feb-10 22:00N 56°14' E 012°15'612.0
2018-Feb-10 21:30N 56°11' E 012°24'612.5
2018-Feb-10 21:00N 56°07' E 012°33'612.9
2018-Feb-10 20:30N 56°02' E 012°40'612.0
2018-Feb-10 20:00N 55°56' E 012°43'611.6
2018-Feb-10 19:30N 55°51' E 012°43'612.0
2018-Feb-10 19:00N 55°45' E 012°42'612.1
2018-Feb-10 18:30N 55°39' E 012°42'5 9.2
2018-Feb-10 18:00N 55°34' E 012°42'5 9.5
2018-Feb-10 17:30N 55°29' E 012°43'612.1
2018-Feb-10 17:00N 55°23' E 012°41'510.7
2018-Feb-10 16:30N 55°18' E 012°43'612.2
2018-Feb-10 16:00N 55°16' E 012°53'612.2
2018-Feb-10 15:30N 55°16' E 013°04'612.3
2018-Feb-10 15:00N 55°15' E 013°14'612.5
2018-Feb-10 14:30N 55°15' E 013°25'2312.4
2018-Feb-10 12:36N 55°13' E 014°06'112.6
2018-Feb-10 12:30N 55°13' E 014°08'911.5
2018-Feb-10 11:45N 55°18' E 014°22'312.6
2018-Feb-10 11:29N 55°20' E 014°26'612.4
2018-Feb-10 10:59N 55°24' E 014°33'612.3
2018-Feb-10 10:30N 55°28' E 014°42'612.4
2018-Feb-10 10:00N 55°31' E 014°51'712.3
2018-Feb-10 09:25N 55°35' E 015°02'512.2
2018-Feb-10 09:00N 55°38' E 015°09'612.3
2018-Feb-10 08:30N 55°41' E 015°18'612.2
2018-Feb-10 08:00N 55°44' E 015°28'612.3
2018-Feb-10 07:30N 55°47' E 015°37'612.3
2018-Feb-10 07:00N 55°51' E 015°46'612.2
2018-Feb-10 06:30N 55°54' E 015°56'612.2
2018-Feb-10 06:00N 55°57' E 016°05'612.2
2018-Feb-10 05:30N 55°60' E 016°14'612.4
2018-Feb-10 05:00N 56°03' E 016°24'612.5
2018-Feb-10 04:30N 56°06' E 016°34'612.5
2018-Feb-10 04:00N 56°10' E 016°43'611.9
2018-Feb-10 03:30N 56°15' E 016°46'612.1
2018-Feb-10 03:00N 56°21' E 016°50'612.3
2018-Feb-10 02:30N 56°27' E 016°54'  
Track history (hours):
 
Tides and Currents Weather Stations Pressure Air Temp Water Temp Dewpoint Dewpoint Depression Visibility Wind Speed Wind Dir Waves Ship Positions

Ara Antwerpen

Last reported at 2018-Feb-19 21:12 UTC. Time now 2018-Feb-20 00:13 UTC.
Position N 40°13' E 002°43'.

Length 145 m; draft 7.1 m.

Type: Cargo ship. MMSI: 236670000.

Date/timePositionNaut miles runAvg speedWind from/ knotsBaromVisibWave heightAir tempDewpointWater temp
2018-Feb-19 21:12N 40°13' E 002°43'312.3
2018-Feb-19 20:58N 40°11' E 002°40'  
2018-Feb-17 12:54N 37°28' W 009°44'513.2
2018-Feb-17 12:30N 37°33' W 009°45'1513.0
2018-Feb-17 11:19N 37°48' W 009°49'513.1
2018-Feb-17 10:57N 37°52' W 009°51'1113.1
2018-Feb-17 10:09N 38°02' W 009°55'712.8
2018-Feb-17 09:34N 38°10' W 009°57'212.8
2018-Feb-17 09:23N 38°12' W 009°58'513.0
2018-Feb-17 09:00N 38°17' W 009°59'913.0
2018-Feb-17 08:19N 38°25' W 010°02'413.2
2018-Feb-17 08:00N 38°29' W 010°03'1013.6
2018-Feb-17 07:18N 38°39' W 010°06'413.4
2018-Feb-17 07:00N 38°43' W 010°07'813.1
2018-Feb-17 06:24N 38°51' W 010°07'513.3
2018-Feb-17 06:00N 38°56' W 010°07'713.1
2018-Feb-17 05:30N 39°02' W 010°07'812.9
2018-Feb-17 04:52N 39°11' W 010°07'  
2018-Feb-15 00:23N 48°51' W 005°47'410.1
2018-Feb-14 23:56N 48°54' W 005°42'2511.5
2018-Feb-14 21:46N 49°08' W 005°10'612.2
2018-Feb-14 21:15N 49°11' W 005°02'7610.6
2018-Feb-14 14:06N 49°51' W 003°22'110.8
2018-Feb-14 14:00N 49°51' W 003°21'610.9
2018-Feb-14 13:29N 49°54' W 003°13'510.9
2018-Feb-14 13:00N 49°57' W 003°06'510.8
2018-Feb-14 12:31N 49°59' W 002°58'611.1
2018-Feb-14 11:59N 50°01' W 002°50'610.9
2018-Feb-14 11:28N 50°02' W 002°41'510.5
2018-Feb-14 10:59N 50°03' W 002°34'28 9.7
2018-Feb-14 08:08N 50°11' W 001°52'1 8.8
2018-Feb-14 07:58N 50°11' W 001°50'4 8.6
2018-Feb-14 07:30N 50°12' W 001°44'4 8.8
2018-Feb-14 07:01N 50°13' W 001°37'4 9.0
2018-Feb-14 06:30N 50°15' W 001°31'5 9.3
2018-Feb-14 06:00N 50°16' W 001°24'1510.7
2018-Feb-14 04:35N 50°20' W 001°01'112.2
2018-Feb-14 04:30N 50°21' W 000°59'712.9
2018-Feb-14 03:57N 50°22' W 000°49'713.5
2018-Feb-14 03:26N 50°24' W 000°38'913.7
2018-Feb-14 02:47N 50°27' W 000°25'413.5
2018-Feb-14 02:30N 50°28' W 000°19'713.3
2018-Feb-14 02:00N 50°30' W 000°09'713.1
2018-Feb-14 01:30N 50°32' E 000°01'612.9
2018-Feb-14 01:00N 50°34' E 000°10'612.5
2018-Feb-14 00:30N 50°35' E 000°20'612.1
2018-Feb-14 00:00N 50°37' E 000°29'611.9
2018-Feb-13 23:30N 50°40' E 000°37'611.9
2018-Feb-13 23:00N 50°43' E 000°45'611.1
2018-Feb-13 22:30N 50°46' E 000°52'610.5
2018-Feb-13 21:58N 50°50' E 000°59'1610.2
2018-Feb-13 20:24N 51°00' E 001°18'410.6
2018-Feb-13 20:00N 51°03' E 001°24'611.6
2018-Feb-13 19:30N 51°06' E 001°31'612.8
2018-Feb-13 19:00N 51°10' E 001°39'612.8
2018-Feb-13 18:30N 51°15' E 001°46'612.4
2018-Feb-13 18:00N 51°21' E 001°50'611.7
2018-Feb-13 17:30N 51°26' E 001°55'611.1
2018-Feb-13 17:00N 51°30' E 002°00'510.8
2018-Feb-13 16:30N 51°34' E 002°06'510.7
2018-Feb-13 16:00N 51°38' E 002°12'510.4
2018-Feb-13 15:30N 51°42' E 002°18'610.0
2018-Feb-13 14:54N 51°47' E 002°24'20410.8
2018-Feb-12 19:56N 54°38' E 005°28'511.2
2018-Feb-12 19:30N 54°42' E 005°33'610.9
2018-Feb-12 19:00N 54°47' E 005°38'611.0
2018-Feb-12 18:29N 54°52' E 005°43'510.8
2018-Feb-12 17:59N 54°57' E 005°47'610.9
2018-Feb-12 17:27N 55°02' E 005°52'510.9
2018-Feb-12 17:00N 55°06' E 005°56'610.9
2018-Feb-12 16:30N 55°11' E 005°60'510.7
2018-Feb-12 16:00N 55°16' E 006°04'510.7
2018-Feb-12 15:30N 55°21' E 006°09'510.4
2018-Feb-12 14:59N 55°25' E 006°13'510.3
2018-Feb-12 14:29N 55°30' E 006°18'510.2
2018-Feb-12 13:59N 55°34' E 006°22'510.1
2018-Feb-12 13:27N 55°39' E 006°25'510.4
2018-Feb-12 12:58N 55°44' E 006°26'510.5
2018-Feb-12 12:30N 55°49' E 006°26'510.4
2018-Feb-12 12:00N 55°55' E 006°25'510.7
2018-Feb-12 11:29N 55°60' E 006°24'6 7.7
2018-Feb-12 10:46N 56°05' E 006°27'4 8.2
2018-Feb-12 10:15N 56°07' E 006°33'2 7.0
2018-Feb-12 10:00N 56°08' E 006°36'161 8.7
2018-Feb-11 15:33N 57°46' E 010°29'011.0
2018-Feb-11 15:30N 57°46' E 010°30'611.9
2018-Feb-11 15:00N 57°46' E 010°41'510.9
2018-Feb-11 14:30N 57°43' E 010°49'612.7
2018-Feb-11 14:00N 57°37' E 010°53'612.1
2018-Feb-11 13:30N 57°31' E 010°55'4 7.5
2018-Feb-11 13:00N 57°28' E 010°51'0 0.3
2018-Feb-11 12:30N 57°28' E 010°51'0 0.1
2018-Feb-11 11:57N 57°28' E 010°51'0 0.1
2018-Feb-11 11:30N 57°28' E 010°51'0 0.1
2018-Feb-11 11:00N 57°28' E 010°51'0 0.2
2018-Feb-11 10:30N 57°28' E 010°51'0 0.0
2018-Feb-11 10:00N 57°28' E 010°51'0 0.1
2018-Feb-11 09:30N 57°28' E 010°51'0 0.3
2018-Feb-11 09:00N 57°28' E 010°52'0 0.5
2018-Feb-11 08:27N 57°28' E 010°52'0 0.4
2018-Feb-11 07:57N 57°28' E 010°52'0 0.3
2018-Feb-11 07:30N 57°28' E 010°52'0 0.7
2018-Feb-11 07:00N 57°27' E 010°53'0 0.7
2018-Feb-11 06:31N 57°27' E 010°53'5 9.1
2018-Feb-11 06:00N 57°27' E 011°02'611.3
2018-Feb-11 05:30N 57°29' E 011°12'510.9
2018-Feb-11 05:00N 57°29' E 011°22'5 9.7
2018-Feb-11 04:30N 57°25' E 011°28'611.5
2018-Feb-11 04:00N 57°20' E 011°31'611.5
2018-Feb-11 03:30N 57°15' E 011°35'611.8
2018-Feb-11 03:00N 57°09' E 011°39'612.4
2018-Feb-11 02:30N 57°03' E 011°42'4611.9
2018-Feb-10 22:36N 56°18' E 012°05'211.1
2018-Feb-10 22:24N 56°17' E 012°08'511.7
2018-Feb-10 22:00N 56°14' E 012°15'612.0
2018-Feb-10 21:30N 56°11' E 012°24'612.5
2018-Feb-10 21:00N 56°07' E 012°33'612.9
2018-Feb-10 20:30N 56°02' E 012°40'612.0
2018-Feb-10 20:00N 55°56' E 012°43'611.6
2018-Feb-10 19:30N 55°51' E 012°43'612.0
2018-Feb-10 19:00N 55°45' E 012°42'612.1
2018-Feb-10 18:30N 55°39' E 012°42'5 9.2
2018-Feb-10 18:00N 55°34' E 012°42'5 9.5
2018-Feb-10 17:30N 55°29' E 012°43'612.1
2018-Feb-10 17:00N 55°23' E 012°41'510.7
2018-Feb-10 16:30N 55°18' E 012°43'612.2
2018-Feb-10 16:00N 55°16' E 012°53'612.2
2018-Feb-10 15:30N 55°16' E 013°04'612.3
2018-Feb-10 15:00N 55°15' E 013°14'612.5
2018-Feb-10 14:30N 55°15' E 013°25'2312.4
2018-Feb-10 12:36N 55°13' E 014°06'112.6
2018-Feb-10 12:30N 55°13' E 014°08'911.5
2018-Feb-10 11:45N 55°18' E 014°22'312.6
2018-Feb-10 11:29N 55°20' E 014°26'612.4
2018-Feb-10 10:59N 55°24' E 014°33'612.3
2018-Feb-10 10:30N 55°28' E 014°42'612.4
2018-Feb-10 10:00N 55°31' E 014°51'712.3
2018-Feb-10 09:25N 55°35' E 015°02'512.2
2018-Feb-10 09:00N 55°38' E 015°09'612.3
2018-Feb-10 08:30N 55°41' E 015°18'612.2
2018-Feb-10 08:00N 55°44' E 015°28'612.3
2018-Feb-10 07:30N 55°47' E 015°37'612.3
2018-Feb-10 07:00N 55°51' E 015°46'612.2
2018-Feb-10 06:30N 55°54' E 015°56'612.2
2018-Feb-10 06:00N 55°57' E 016°05'612.2
2018-Feb-10 05:30N 55°60' E 016°14'612.4
2018-Feb-10 05:00N 56°03' E 016°24'612.5
2018-Feb-10 04:30N 56°06' E 016°34'612.5
2018-Feb-10 04:00N 56°10' E 016°43'611.9
2018-Feb-10 03:30N 56°15' E 016°46'612.1
2018-Feb-10 03:00N 56°21' E 016°50'612.3
2018-Feb-10 02:30N 56°27' E 016°54'  

Dump ship's entire track history